sensor_id;sensor_type;location;lat;lon;timestamp;pressure;altitude;pressure_sealevel;temperature;humidity
72585;BME280;60618;40.084;32.908;2023-04-10T00:01:47;89209.28;;;8.89;82.05
72585;BME280;60618;40.084;32.908;2023-04-10T00:04:14;89207.59;;;8.65;83.24
72585;BME280;60618;40.084;32.908;2023-04-10T00:06:41;89197.25;;;8.67;82.78
72585;BME280;60618;40.084;32.908;2023-04-10T00:09:09;89195.78;;;8.66;82.85
72585;BME280;60618;40.084;32.908;2023-04-10T00:11:36;89186.78;;;8.58;84.61
72585;BME280;60618;40.084;32.908;2023-04-10T00:14:02;89184.13;;;8.58;85.27
72585;BME280;60618;40.084;32.908;2023-04-10T00:16:29;89181.22;;;8.56;86.12
72585;BME280;60618;40.084;32.908;2023-04-10T00:18:56;89171.06;;;8.55;86.27
72585;BME280;60618;40.084;32.908;2023-04-10T00:21:23;89180.66;;;8.32;86.77
72585;BME280;60618;40.084;32.908;2023-04-10T00:23:50;89179.28;;;8.36;87.25
72585;BME280;60618;40.084;32.908;2023-04-10T00:26:17;89161.44;;;8.37;87.67
72585;BME280;60618;40.084;32.908;2023-04-10T00:28:44;89172.44;;;8.30;87.88
72585;BME280;60618;40.084;32.908;2023-04-10T00:31:11;89165.00;;;8.34;87.73
72585;BME280;60618;40.084;32.908;2023-04-10T00:33:37;89163.16;;;8.40;87.43
72585;BME280;60618;40.084;32.908;2023-04-10T00:36:05;89164.22;;;8.48;87.29
72585;BME280;60618;40.084;32.908;2023-04-10T00:38:32;89159.25;;;8.56;87.49
72585;BME280;60618;40.084;32.908;2023-04-10T00:40:59;89165.13;;;8.65;86.51
72585;BME280;60618;40.084;32.908;2023-04-10T00:43:26;89161.44;;;8.83;85.16
72585;BME280;60618;40.084;32.908;2023-04-10T00:45:52;89162.91;;;8.84;85.75
72585;BME280;60618;40.084;32.908;2023-04-10T00:48:20;89157.50;;;8.99;85.02
72585;BME280;60618;40.084;32.908;2023-04-10T00:50:47;89158.97;;;9.00;85.11
72585;BME280;60618;40.084;32.908;2023-04-10T00:53:14;89157.28;;;9.02;85.28
72585;BME280;60618;40.084;32.908;2023-04-10T00:55:41;89151.34;;;9.13;84.66
72585;BME280;60618;40.084;32.908;2023-04-10T00:58:08;89159.84;;;9.17;84.11
72585;BME280;60618;40.084;32.908;2023-04-10T01:00:34;89150.53;;;9.07;83.92
72585;BME280;60618;40.084;32.908;2023-04-10T01:03:02;89150.25;;;8.99;84.63
72585;BME280;60618;40.084;32.908;2023-04-10T01:05:38;89145.94;;;9.02;84.59
72585;BME280;60618;40.084;32.908;2023-04-10T01:08:13;89137.97;;;9.02;84.69
72585;BME280;60618;40.084;32.908;2023-04-10T01:11:00;89151.91;;;8.97;84.41
72585;BME280;60618;40.084;32.908;2023-04-10T01:13:35;89132.13;;;8.98;84.39
72585;BME280;60618;40.084;32.908;2023-04-10T01:18:40;89133.31;;;8.97;85.05
72585;BME280;60618;40.084;32.908;2023-04-10T01:21:11;89128.44;;;8.90;85.59
72585;BME280;60618;40.084;32.908;2023-04-10T01:24:06;89128.97;;;8.94;84.59
72585;BME280;60618;40.084;32.908;2023-04-10T01:26:52;89135.31;;;9.02;84.16
72585;BME280;60618;40.084;32.908;2023-04-10T01:29:24;89127.28;;;8.96;83.86
72585;BME280;60618;40.084;32.908;2023-04-10T01:31:52;89121.00;;;8.94;83.33
72585;BME280;60618;40.084;32.908;2023-04-10T01:34:24;89119.88;;;9.06;83.93
72585;BME280;60618;40.084;32.908;2023-04-10T01:37:03;89113.44;;;8.87;84.02
72585;BME280;60618;40.084;32.908;2023-04-10T01:39:33;89112.19;;;8.82;84.17
72585;BME280;60618;40.084;32.908;2023-04-10T01:42:04;89111.88;;;8.74;84.35
72585;BME280;60618;40.084;32.908;2023-04-10T01:44:33;89105.00;;;8.62;83.88
72585;BME280;60618;40.084;32.908;2023-04-10T01:47:03;89107.50;;;8.71;84.06
72585;BME280;60618;40.084;32.908;2023-04-10T01:49:33;89107.81;;;8.79;84.05
72585;BME280;60618;40.084;32.908;2023-04-10T01:52:00;89109.06;;;8.84;83.58
72585;BME280;60618;40.084;32.908;2023-04-10T01:54:28;89099.53;;;8.71;84.22
72585;BME280;60618;40.084;32.908;2023-04-10T01:56:58;89105.13;;;8.73;83.38
72585;BME280;60618;40.084;32.908;2023-04-10T01:59:26;89101.47;;;8.71;83.34
72585;BME280;60618;40.084;32.908;2023-04-10T02:01:59;89098.53;;;8.63;84.07
72585;BME280;60618;40.084;32.908;2023-04-10T02:04:26;89098.78;;;8.65;83.95
72585;BME280;60618;40.084;32.908;2023-04-10T02:07:09;89096.59;;;8.64;83.28
72585;BME280;60618;40.084;32.908;2023-04-10T02:12:38;89097.88;;;8.74;83.00
72585;BME280;60618;40.084;32.908;2023-04-10T02:15:07;89098.41;;;8.78;82.28
72585;BME280;60618;40.084;32.908;2023-04-10T02:17:35;89091.06;;;8.67;82.73
72585;BME280;60618;40.084;32.908;2023-04-10T02:20:03;89094.69;;;8.70;82.49
72585;BME280;60618;40.084;32.908;2023-04-10T02:22:32;89092.50;;;8.68;82.84
72585;BME280;60618;40.084;32.908;2023-04-10T02:24:59;89095.44;;;8.70;82.57
72585;BME280;60618;40.084;32.908;2023-04-10T02:27:33;89092.50;;;8.68;82.28
72585;BME280;60618;40.084;32.908;2023-04-10T02:30:01;89091.38;;;8.75;82.42
72585;BME280;60618;40.084;32.908;2023-04-10T02:32:29;89080.94;;;8.71;80.12
72585;BME280;60618;40.084;32.908;2023-04-10T02:34:56;89077.72;;;8.62;80.99
72585;BME280;60618;40.084;32.908;2023-04-10T02:37:24;89083.00;;;8.56;81.49
72585;BME280;60618;40.084;32.908;2023-04-10T02:39:51;89075.03;;;8.56;81.37
72585;BME280;60618;40.084;32.908;2023-04-10T02:42:18;89070.94;;;8.55;81.25
72585;BME280;60618;40.084;32.908;2023-04-10T02:44:46;89067.56;;;8.55;81.49
72585;BME280;60618;40.084;32.908;2023-04-10T02:47:13;89046.66;;;8.42;80.98
72585;BME280;60618;40.084;32.908;2023-04-10T02:49:40;89048.81;;;8.38;81.00
72585;BME280;60618;40.084;32.908;2023-04-10T02:52:07;89045.59;;;8.34;81.53
72585;BME280;60618;40.084;32.908;2023-04-10T02:54:34;89049.41;;;8.27;81.64
72585;BME280;60618;40.084;32.908;2023-04-10T02:57:04;89038.66;;;8.16;81.87
72585;BME280;60618;40.084;32.908;2023-04-10T02:59:31;89052.72;;;8.22;81.72
72585;BME280;60618;40.084;32.908;2023-04-10T03:01:57;89046.84;;;8.12;81.85
72585;BME280;60618;40.084;32.908;2023-04-10T03:04:25;89047.63;;;8.18;82.10
72585;BME280;60618;40.084;32.908;2023-04-10T03:06:52;89042.06;;;8.16;82.88
72585;BME280;60618;40.084;32.908;2023-04-10T03:09:19;89039.28;;;8.05;82.49
72585;BME280;60618;40.084;32.908;2023-04-10T03:11:45;89040.41;;;7.98;82.20
72585;BME280;60618;40.084;32.908;2023-04-10T03:14:12;89046.03;;;8.06;82.23
72585;BME280;60618;40.084;32.908;2023-04-10T03:16:39;89030.47;;;8.14;81.79
72585;BME280;60618;40.084;32.908;2023-04-10T03:19:06;89044.84;;;8.07;81.73
72585;BME280;60618;40.084;32.908;2023-04-10T03:21:33;89036.28;;;7.92;81.99
72585;BME280;60618;40.084;32.908;2023-04-10T03:24:00;89027.13;;;7.93;81.64
72585;BME280;60618;40.084;32.908;2023-04-10T03:26:27;89036.41;;;7.83;81.93
72585;BME280;60618;40.084;32.908;2023-04-10T03:28:54;89038.50;;;7.79;82.55
72585;BME280;60618;40.084;32.908;2023-04-10T03:31:21;89044.38;;;7.83;82.70
72585;BME280;60618;40.084;32.908;2023-04-10T03:33:48;89047.78;;;7.89;82.46
72585;BME280;60618;40.084;32.908;2023-04-10T03:36:15;89050.38;;;7.83;82.51
72585;BME280;60618;40.084;32.908;2023-04-10T03:38:41;89039.47;;;7.76;83.05
72585;BME280;60618;40.084;32.908;2023-04-10T03:41:08;89047.59;;;7.72;83.30
72585;BME280;60618;40.084;32.908;2023-04-10T03:43:35;89050.88;;;7.82;83.22
72585;BME280;60618;40.084;32.908;2023-04-10T03:46:02;89052.31;;;7.83;83.22
72585;BME280;60618;40.084;32.908;2023-04-10T03:48:29;89044.63;;;7.85;83.30
72585;BME280;60618;40.084;32.908;2023-04-10T03:50:57;89045.59;;;7.87;83.59
72585;BME280;60618;40.084;32.908;2023-04-10T03:53:24;89033.22;;;7.79;84.76
72585;BME280;60618;40.084;32.908;2023-04-10T03:55:50;89037.88;;;7.84;85.04
72585;BME280;60618;40.084;32.908;2023-04-10T03:58:17;89037.41;;;7.85;84.84
72585;BME280;60618;40.084;32.908;2023-04-10T04:00:45;89028.03;;;7.90;84.96
72585;BME280;60618;40.084;32.908;2023-04-10T04:03:12;89028.47;;;7.83;84.57
72585;BME280;60618;40.084;32.908;2023-04-10T04:05:40;89026.84;;;7.71;85.48
72585;BME280;60618;40.084;32.908;2023-04-10T04:08:07;89039.97;;;7.80;84.94
72585;BME280;60618;40.084;32.908;2023-04-10T04:10:34;89042.78;;;7.91;85.04
72585;BME280;60618;40.084;32.908;2023-04-10T04:13:00;89031.72;;;7.98;84.33
72585;BME280;60618;40.084;32.908;2023-04-10T04:15:27;89027.38;;;7.95;84.82
72585;BME280;60618;40.084;32.908;2023-04-10T04:17:55;89036.28;;;7.92;85.19
72585;BME280;60618;40.084;32.908;2023-04-10T04:20:22;89031.69;;;7.92;85.17
72585;BME280;60618;40.084;32.908;2023-04-10T04:22:49;89031.00;;;7.97;85.34
72585;BME280;60618;40.084;32.908;2023-04-10T04:25:16;89030.59;;;8.05;85.68
72585;BME280;60618;40.084;32.908;2023-04-10T04:27:43;89027.75;;;8.08;85.43
72585;BME280;60618;40.084;32.908;2023-04-10T04:30:10;89020.22;;;8.01;85.39
72585;BME280;60618;40.084;32.908;2023-04-10T04:32:37;89032.03;;;8.00;85.57
72585;BME280;60618;40.084;32.908;2023-04-10T04:35:04;89027.75;;;8.08;85.97
72585;BME280;60618;40.084;32.908;2023-04-10T04:37:31;89028.44;;;8.03;86.59
72585;BME280;60618;40.084;32.908;2023-04-10T04:39:58;89026.81;;;8.11;86.41
72585;BME280;60618;40.084;32.908;2023-04-10T04:42:25;89026.56;;;8.09;86.63
72585;BME280;60618;40.084;32.908;2023-04-10T04:44:52;89034.78;;;8.11;85.66
72585;BME280;60618;40.084;32.908;2023-04-10T04:47:19;89028.84;;;8.22;85.69
72585;BME280;60618;40.084;32.908;2023-04-10T04:49:46;89024.53;;;8.24;85.74
72585;BME280;60618;40.084;32.908;2023-04-10T04:52:13;89029.38;;;8.26;86.43
72585;BME280;60618;40.084;32.908;2023-04-10T04:54:39;89025.25;;;8.25;86.95
72585;BME280;60618;40.084;32.908;2023-04-10T04:57:06;89027.34;;;8.15;87.66
72585;BME280;60618;40.084;32.908;2023-04-10T04:59:33;89024.94;;;8.17;87.63
72585;BME280;60618;40.084;32.908;2023-04-10T05:02:00;89036.31;;;8.18;87.24
72585;BME280;60618;40.084;32.908;2023-04-10T05:04:27;89029.84;;;8.24;87.99
72585;BME280;60618;40.084;32.908;2023-04-10T05:06:54;89033.19;;;8.19;87.80
72585;BME280;60618;40.084;32.908;2023-04-10T05:09:21;89023.41;;;8.31;87.63
72585;BME280;60618;40.084;32.908;2023-04-10T05:11:48;89027.84;;;8.40;87.86
72585;BME280;60618;40.084;32.908;2023-04-10T05:14:18;89021.63;;;8.22;88.21
72585;BME280;60618;40.084;32.908;2023-04-10T05:16:45;89024.53;;;8.24;87.79
72585;BME280;60618;40.084;32.908;2023-04-10T05:19:12;89026.78;;;8.32;87.73
72585;BME280;60618;40.084;32.908;2023-04-10T05:21:39;89023.63;;;8.28;88.22
72585;BME280;60618;40.084;32.908;2023-04-10T05:24:08;89021.72;;;8.34;87.83
72585;BME280;60618;40.084;32.908;2023-04-10T05:26:35;89025.03;;;8.49;87.25
72585;BME280;60618;40.084;32.908;2023-04-10T05:29:02;89027.22;;;8.50;87.47
72585;BME280;60618;40.084;32.908;2023-04-10T05:31:29;89024.19;;;8.63;86.50
72585;BME280;60618;40.084;32.908;2023-04-10T05:33:56;89014.25;;;8.58;86.34
72585;BME280;60618;40.084;32.908;2023-04-10T05:36:23;89018.44;;;8.39;87.99
72585;BME280;60618;40.084;32.908;2023-04-10T05:38:50;89027.84;;;8.40;88.28
72585;BME280;60618;40.084;32.908;2023-04-10T05:41:18;89009.28;;;8.40;88.18
72585;BME280;60618;40.084;32.908;2023-04-10T05:43:44;89010.22;;;8.37;88.90
72585;BME280;60618;40.084;32.908;2023-04-10T05:46:11;89008.63;;;8.24;89.25
72585;BME280;60618;40.084;32.908;2023-04-10T05:48:38;89014.44;;;8.29;89.06
72585;BME280;60618;40.084;32.908;2023-04-10T05:51:05;89004.25;;;8.21;89.63
72585;BME280;60618;40.084;32.908;2023-04-10T05:53:32;89001.22;;;8.34;90.37
72585;BME280;60618;40.084;32.908;2023-04-10T05:55:59;88995.91;;;8.34;90.42
72585;BME280;60618;40.084;32.908;2023-04-10T05:58:27;88993.47;;;8.31;90.32
72585;BME280;60618;40.084;32.908;2023-04-10T06:00:54;88996.34;;;8.27;90.26
72585;BME280;60618;40.084;32.908;2023-04-10T06:03:21;88987.81;;;8.43;90.80
72585;BME280;60618;40.084;32.908;2023-04-10T06:05:48;88989.59;;;8.52;90.07
72585;BME280;60618;40.084;32.908;2023-04-10T06:08:15;88983.03;;;8.47;90.58
72585;BME280;60618;40.084;32.908;2023-04-10T06:10:42;88990.53;;;8.49;90.78
72585;BME280;60618;40.084;32.908;2023-04-10T06:13:09;88993.91;;;8.49;90.82
72585;BME280;60618;40.084;32.908;2023-04-10T06:15:37;88992.22;;;8.46;91.89
72585;BME280;60618;40.084;32.908;2023-04-10T06:18:04;88978.22;;;8.46;91.59
72585;BME280;60618;40.084;32.908;2023-04-10T06:20:30;88982.81;;;8.51;92.75
72585;BME280;60618;40.084;32.908;2023-04-10T06:22:58;88972.03;;;8.60;91.97
72585;BME280;60618;40.084;32.908;2023-04-10T06:25:25;88975.22;;;8.64;92.57
72585;BME280;60618;40.084;32.908;2023-04-10T06:27:52;88981.38;;;8.50;92.86
72585;BME280;60618;40.084;32.908;2023-04-10T06:30:19;88977.94;;;8.44;92.40
72585;BME280;60618;40.084;32.908;2023-04-10T06:32:46;88979.41;;;8.45;91.68
72585;BME280;60618;40.084;32.908;2023-04-10T06:35:13;88974.19;;;8.56;92.04
72585;BME280;60618;40.084;32.908;2023-04-10T06:37:41;88985.72;;;8.53;92.15
72585;BME280;60618;40.084;32.908;2023-04-10T06:40:12;88976.28;;;8.46;92.55
72585;BME280;60618;40.084;32.908;2023-04-10T06:42:39;88973.34;;;8.44;92.70
72585;BME280;60618;40.084;32.908;2023-04-10T06:45:07;88981.13;;;8.48;93.46
72585;BME280;60618;40.084;32.908;2023-04-10T06:47:35;88972.38;;;8.42;93.93
72585;BME280;60618;40.084;32.908;2023-04-10T06:50:03;88969.56;;;8.51;93.60
72585;BME280;60618;40.084;32.908;2023-04-10T06:52:31;88979.19;;;8.48;93.05
72585;BME280;60618;40.084;32.908;2023-04-10T06:54:58;88967.16;;;8.53;93.86
72585;BME280;60618;40.084;32.908;2023-04-10T06:57:25;88959.47;;;8.55;94.16
72585;BME280;60618;40.084;32.908;2023-04-10T06:59:52;88959.72;;;8.57;94.41
72585;BME280;60618;40.084;32.908;2023-04-10T07:02:19;88964.50;;;8.53;95.14
72585;BME280;60618;40.084;32.908;2023-04-10T07:04:46;88949.59;;;8.61;94.65
72585;BME280;60618;40.084;32.908;2023-04-10T07:07:13;88941.44;;;8.65;95.55
72585;BME280;60618;40.084;32.908;2023-04-10T07:09:40;88944.09;;;8.65;95.39
72585;BME280;60618;40.084;32.908;2023-04-10T07:12:07;88945.50;;;8.60;94.40
72585;BME280;60618;40.084;32.908;2023-04-10T07:14:34;88946.50;;;8.63;94.31
72585;BME280;60618;40.084;32.908;2023-04-10T07:17:01;88946.69;;;8.59;94.16
72585;BME280;60618;40.084;32.908;2023-04-10T07:19:28;88941.69;;;8.67;94.60
72585;BME280;60618;40.084;32.908;2023-04-10T07:21:55;88943.38;;;8.70;94.67
72585;BME280;60618;40.084;32.908;2023-04-10T07:24:22;88938.56;;;8.68;95.05
72585;BME280;60618;40.084;32.908;2023-04-10T07:26:49;88936.41;;;8.72;94.75
72585;BME280;60618;40.084;32.908;2023-04-10T07:29:16;88938.13;;;8.75;94.83
72585;BME280;60618;40.084;32.908;2023-04-10T07:31:43;88927.31;;;8.85;94.82
72585;BME280;60618;40.084;32.908;2023-04-10T07:34:10;88930.19;;;8.81;95.34
72585;BME280;60618;40.084;32.908;2023-04-10T07:36:37;88926.53;;;8.78;95.19
72585;BME280;60618;40.084;32.908;2023-04-10T07:39:04;88923.69;;;8.82;95.44
72585;BME280;60618;40.084;32.908;2023-04-10T07:41:31;88926.09;;;8.86;95.01
72585;BME280;60618;40.084;32.908;2023-04-10T07:43:58;88920.31;;;8.81;95.77
72585;BME280;60618;40.084;32.908;2023-04-10T07:46:25;88925.16;;;8.89;94.81
72585;BME280;60618;40.084;32.908;2023-04-10T07:48:52;88917.22;;;8.94;95.14
72585;BME280;60618;40.084;32.908;2023-04-10T07:51:20;88909.78;;;9.04;95.23
72585;BME280;60618;40.084;32.908;2023-04-10T07:53:47;88905.69;;;9.03;94.88
72585;BME280;60618;40.084;32.908;2023-04-10T07:56:18;88905.00;;;9.14;95.01
72585;BME280;60618;40.084;32.908;2023-04-10T07:58:46;88900.16;;;9.12;95.00
72585;BME280;60618;40.084;32.908;2023-04-10T08:01:14;88895.13;;;9.25;94.04
72585;BME280;60618;40.084;32.908;2023-04-10T08:03:42;88892.53;;;9.36;93.93
72585;BME280;60618;40.084;32.908;2023-04-10T08:06:10;88891.75;;;9.25;93.84
72585;BME280;60618;40.084;32.908;2023-04-10T08:08:39;88891.03;;;9.24;93.58
72585;BME280;60618;40.084;32.908;2023-04-10T08:11:20;88889.88;;;9.36;92.90
72585;BME280;60618;40.084;32.908;2023-04-10T08:13:48;88875.41;;;9.43;92.60
72585;BME280;60618;40.084;32.908;2023-04-10T08:16:15;88884.34;;;9.51;94.06
72585;BME280;60618;40.084;32.908;2023-04-10T08:18:42;88877.84;;;9.58;93.20
72585;BME280;60618;40.084;32.908;2023-04-10T08:21:09;88874.75;;;9.65;92.64
72585;BME280;60618;40.084;32.908;2023-04-10T08:23:35;88867.00;;;9.78;92.50
72585;BME280;60618;40.084;32.908;2023-04-10T08:26:02;88861.72;;;10.01;91.66
72585;BME280;60618;40.084;32.908;2023-04-10T08:28:29;88861.00;;;9.89;90.81
72585;BME280;60618;40.084;32.908;2023-04-10T08:30:56;88857.84;;;9.85;90.80
72585;BME280;60618;40.084;32.908;2023-04-10T08:33:23;88845.78;;;9.89;90.62
72585;BME280;60618;40.084;32.908;2023-04-10T08:35:50;88833.69;;;10.00;90.65
72585;BME280;60618;40.084;32.908;2023-04-10T08:38:17;88833.66;;;9.88;91.83
72585;BME280;60618;40.084;32.908;2023-04-10T08:40:44;88834.88;;;9.82;91.97
72585;BME280;60618;40.084;32.908;2023-04-10T08:43:11;88825.19;;;9.79;92.43
72585;BME280;60618;40.084;32.908;2023-04-10T08:45:40;88815.03;;;9.88;91.18
72585;BME280;60618;40.084;32.908;2023-04-10T08:48:07;88806.34;;;9.88;91.70
72585;BME280;60618;40.084;32.908;2023-04-10T08:50:40;88804.41;;;9.77;92.15
72585;BME280;60618;40.084;32.908;2023-04-10T08:53:12;88817.69;;;9.66;93.01
72585;BME280;60618;40.084;32.908;2023-04-10T08:55:40;88836.78;;;9.53;94.33
72585;BME280;60618;40.084;32.908;2023-04-10T08:58:07;88815.47;;;9.31;92.27
72585;BME280;60618;40.084;32.908;2023-04-10T09:00:35;88808.72;;;8.70;91.97
72585;BME280;60618;40.084;32.908;2023-04-10T09:03:11;88803.63;;;8.61;94.81
72585;BME280;60618;40.084;32.908;2023-04-10T09:05:38;88801.97;;;8.69;93.38
72585;BME280;60618;40.084;32.908;2023-04-10T09:08:09;88807.59;;;8.82;93.01
72585;BME280;60618;40.084;32.908;2023-04-10T09:10:35;88804.72;;;8.92;92.57
72585;BME280;60618;40.084;32.908;2023-04-10T09:13:02;88815.88;;;9.07;91.54
72585;BME280;60618;40.084;32.908;2023-04-10T09:15:29;88805.97;;;9.07;90.66
72585;BME280;60618;40.084;32.908;2023-04-10T09:17:58;88818.06;;;9.14;90.42
72585;BME280;60618;40.084;32.908;2023-04-10T09:20:28;88810.34;;;9.16;90.21
72585;BME280;60618;40.084;32.908;2023-04-10T09:22:55;88816.41;;;9.22;91.04
72585;BME280;60618;40.084;32.908;2023-04-10T09:28:06;88815.69;;;9.27;91.11
72585;BME280;60618;40.084;32.908;2023-04-10T09:30:41;88831.66;;;9.27;90.60
72585;BME280;60618;40.084;32.908;2023-04-10T09:35:48;88860.31;;;8.58;95.09
72585;BME280;60618;40.084;32.908;2023-04-10T09:38:17;88857.66;;;8.26;97.88
72585;BME280;60618;40.084;32.908;2023-04-10T09:40:45;88850.34;;;8.10;98.76
72585;BME280;60618;40.084;32.908;2023-04-10T09:43:19;88839.19;;;8.01;99.91
72585;BME280;60618;40.084;32.908;2023-04-10T09:45:51;88842.97;;;7.94;100.00
72585;BME280;60618;40.084;32.908;2023-04-10T09:48:18;88847.25;;;7.86;100.00
72585;BME280;60618;40.084;32.908;2023-04-10T09:50:46;88842.19;;;7.88;100.00
72585;BME280;60618;40.084;32.908;2023-04-10T09:53:14;88833.75;;;7.84;100.00
72585;BME280;60618;40.084;32.908;2023-04-10T09:55:42;88826.03;;;7.86;100.00
72585;BME280;60618;40.084;32.908;2023-04-10T09:58:09;88832.38;;;7.94;100.00
72585;BME280;60618;40.084;32.908;2023-04-10T10:00:40;88822.13;;;8.13;100.00
72585;BME280;60618;40.084;32.908;2023-04-10T10:03:12;88811.16;;;8.31;100.00
72585;BME280;60618;40.084;32.908;2023-04-10T10:05:42;88807.19;;;8.52;100.00
72585;BME280;60618;40.084;32.908;2023-04-10T10:08:11;88805.88;;;8.79;100.00
72585;BME280;60618;40.084;32.908;2023-04-10T10:10:50;88793.66;;;8.99;100.00
72585;BME280;60618;40.084;32.908;2023-04-10T10:13:54;88793.97;;;9.29;99.82
72585;BME280;60618;40.084;32.908;2023-04-10T10:16:35;88793.75;;;9.60;99.17
72585;BME280;60618;40.084;32.908;2023-04-10T10:19:05;88795.22;;;9.78;98.14
72585;BME280;60618;40.084;32.908;2023-04-10T10:21:34;88803.19;;;9.67;94.77
72585;BME280;60618;40.084;32.908;2023-04-10T10:24:06;88811.91;;;9.62;93.87
72585;BME280;60618;40.084;32.908;2023-04-10T10:26:35;88810.63;;;9.29;95.01
72585;BME280;60618;40.084;32.908;2023-04-10T10:29:06;88808.63;;;9.07;96.44
72585;BME280;60618;40.084;32.908;2023-04-10T10:31:33;88798.69;;;8.91;97.31
72585;BME280;60618;40.084;32.908;2023-04-10T10:34:00;88797.66;;;8.77;97.84
72585;BME280;60618;40.084;32.908;2023-04-10T10:36:28;88804.19;;;8.76;98.73
72585;BME280;60618;40.084;32.908;2023-04-10T10:39:20;88804.66;;;8.75;98.99
72585;BME280;60618;40.084;32.908;2023-04-10T10:42:01;88800.56;;;8.74;100.00
72585;BME280;60618;40.084;32.908;2023-04-10T10:47:19;88800.06;;;8.75;100.00
72585;BME280;60618;40.084;32.908;2023-04-10T10:49:56;88794.00;;;8.69;100.00
72585;BME280;60618;40.084;32.908;2023-04-10T10:52:47;88779.84;;;8.84;100.00
72585;BME280;60618;40.084;32.908;2023-04-10T10:57:54;88774.28;;;8.81;98.88
72585;BME280;60618;40.084;32.908;2023-04-10T11:00:26;88777.19;;;8.89;98.62
72585;BME280;60618;40.084;32.908;2023-04-10T11:16:03;88761.84;;;9.32;96.11
72585;BME280;60618;40.084;32.908;2023-04-10T11:21:28;88753.16;;;9.49;96.22
72585;BME280;60618;40.084;32.908;2023-04-10T11:29:02;88770.06;;;9.46;97.27
72585;BME280;60618;40.084;32.908;2023-04-10T11:31:30;88748.81;;;9.62;97.34
72585;BME280;60618;40.084;32.908;2023-04-10T11:34:02;88755.34;;;9.78;96.16
72585;BME280;60618;40.084;32.908;2023-04-10T11:36:30;88751.22;;;9.88;95.48
72585;BME280;60618;40.084;32.908;2023-04-10T11:39:07;88748.56;;;10.00;94.25
72585;BME280;60618;40.084;32.908;2023-04-10T11:41:39;88744.94;;;10.08;93.69
72585;BME280;60618;40.084;32.908;2023-04-10T11:44:11;88747.06;;;10.21;93.40
72585;BME280;60618;40.084;32.908;2023-04-10T11:46:40;88737.63;;;10.31;92.26
72585;BME280;60618;40.084;32.908;2023-04-10T11:49:08;88739.84;;;9.93;91.71
72585;BME280;60618;40.084;32.908;2023-04-10T11:51:38;88724.66;;;9.66;93.61
72585;BME280;60618;40.084;32.908;2023-04-10T11:54:10;88709.66;;;9.52;94.86
72585;BME280;60618;40.084;32.908;2023-04-10T11:56:39;88704.84;;;9.39;96.26
72585;BME280;60618;40.084;32.908;2023-04-10T11:59:07;88701.22;;;9.36;96.37
72585;BME280;60618;40.084;32.908;2023-04-10T12:01:34;88703.41;;;9.44;97.07
72585;BME280;60618;40.084;32.908;2023-04-10T12:04:01;88707.75;;;9.47;96.92
72585;BME280;60618;40.084;32.908;2023-04-10T12:06:29;88706.75;;;9.33;97.76
72585;BME280;60618;40.084;32.908;2023-04-10T12:08:56;88701.94;;;9.26;97.52
72585;BME280;60618;40.084;32.908;2023-04-10T12:11:24;88709.16;;;9.14;98.67
72585;BME280;60618;40.084;32.908;2023-04-10T12:13:53;88689.34;;;9.04;99.22
72585;BME280;60618;40.084;32.908;2023-04-10T12:16:20;88679.69;;;8.95;100.00
72585;BME280;60618;40.084;32.908;2023-04-10T12:18:48;88670.50;;;9.02;100.00
72585;BME280;60618;40.084;32.908;2023-04-10T12:21:15;88672.19;;;9.16;100.00
72585;BME280;60618;40.084;32.908;2023-04-10T12:23:43;88669.31;;;9.25;100.00
72585;BME280;60618;40.084;32.908;2023-04-10T12:26:12;88656.75;;;9.43;100.00
72585;BME280;60618;40.084;32.908;2023-04-10T12:28:41;88664.72;;;9.65;100.00
72585;BME280;60618;40.084;32.908;2023-04-10T12:31:08;88661.28;;;9.87;100.00
72585;BME280;60618;40.084;32.908;2023-04-10T12:33:35;88672.88;;;9.95;99.14
72585;BME280;60618;40.084;32.908;2023-04-10T12:36:02;88685.94;;;9.93;99.09
72585;BME280;60618;40.084;32.908;2023-04-10T12:38:38;88677.75;;;9.80;97.75
72585;BME280;60618;40.084;32.908;2023-04-10T12:41:06;88684.75;;;9.77;96.64
72585;BME280;60618;40.084;32.908;2023-04-10T12:43:38;88690.31;;;9.79;96.97
72585;BME280;60618;40.084;32.908;2023-04-10T12:46:08;88677.00;;;9.90;95.74
72585;BME280;60618;40.084;32.908;2023-04-10T12:48:35;88682.84;;;9.72;94.70
72585;BME280;60618;40.084;32.908;2023-04-10T12:51:02;88675.13;;;9.63;94.63
72585;BME280;60618;40.084;32.908;2023-04-10T12:53:29;88684.03;;;9.60;94.77
72585;BME280;60618;40.084;32.908;2023-04-10T12:56:04;88676.31;;;9.56;96.62
72585;BME280;60618;40.084;32.908;2023-04-10T12:58:32;88663.75;;;9.57;95.91
72585;BME280;60618;40.084;32.908;2023-04-10T13:01:06;88647.03;;;9.84;96.77
72585;BME280;60618;40.084;32.908;2023-04-10T13:03:33;88650.38;;;10.02;95.27
72585;BME280;60618;40.084;32.908;2023-04-10T13:06:01;88629.75;;;10.19;94.49
72585;BME280;60618;40.084;32.908;2023-04-10T13:08:28;88629.94;;;10.43;94.22
72585;BME280;60618;40.084;32.908;2023-04-10T13:10:55;88629.38;;;10.62;93.16
72585;BME280;60618;40.084;32.908;2023-04-10T13:13:21;88625.53;;;10.51;90.76
72585;BME280;60618;40.084;32.908;2023-04-10T13:15:48;88624.97;;;10.70;90.71
72585;BME280;60618;40.084;32.908;2023-04-10T13:18:15;88617.28;;;10.61;88.44
72585;BME280;60618;40.084;32.908;2023-04-10T13:20:42;88620.72;;;10.44;89.16
72585;BME280;60618;40.084;32.908;2023-04-10T13:23:09;88623.94;;;10.20;90.55
72585;BME280;60618;40.084;32.908;2023-04-10T13:25:38;88618.00;;;9.98;92.15
72585;BME280;60618;40.084;32.908;2023-04-10T13:28:07;88631.34;;;9.70;94.33
72585;BME280;60618;40.084;32.908;2023-04-10T13:30:35;88631.13;;;9.62;95.36
72585;BME280;60618;40.084;32.908;2023-04-10T13:33:02;88625.09;;;9.56;94.73
72585;BME280;60618;40.084;32.908;2023-04-10T13:35:29;88631.84;;;9.57;95.33
72585;BME280;60618;40.084;32.908;2023-04-10T13:37:57;88639.84;;;9.46;95.44
72585;BME280;60618;40.084;32.908;2023-04-10T13:40:24;88636.00;;;9.35;95.16
72585;BME280;60618;40.084;32.908;2023-04-10T13:42:51;88636.47;;;9.39;95.36
72585;BME280;60618;40.084;32.908;2023-04-10T13:45:18;88638.38;;;9.56;95.38